Time;durP1;ratioP1;P1;durP2;ratioP2;P2;SDS_P1;SDS_P2;PMS_P1;PMS_P2;Temp;Humidity;BMP_temperature;BMP_pressure;BME280_temperature;BME280_humidity;BME280_pressure;Samples;Min_cycle;Max_cycle;Signal;HPM_P1;HPM_P2
2023/05/31 00:01:16;;;;;;;21.10;11.00;;;;;;;12.94;100.00;92834.59;5092807;28;20200;-74
2023/05/31 00:03:43;;;;;;;22.75;11.35;;;;;;;12.93;100.00;92844.34;5092653;28;20036;-74
2023/05/31 00:06:12;;;;;;;25.85;12.00;;;;;;;12.95;100.00;92834.31;5074786;28;20036;-75
2023/05/31 00:08:39;;;;;;;22.58;11.70;;;;;;;12.90;100.00;92839.66;5092819;28;20055;-74
2023/05/31 00:11:06;;;;;;;26.98;13.68;;;;;;;12.94;100.00;92845.88;5092495;28;20024;-74
2023/05/31 00:13:32;;;;;;;29.67;13.05;;;;;;;12.98;100.00;92838.97;5092529;28;20032;-74
2023/05/31 00:15:58;;;;;;;27.52;12.45;;;;;;;13.08;100.00;92827.50;5092658;28;20039;-75
2023/05/31 00:18:23;;;;;;;29.73;12.95;;;;;;;13.02;100.00;92829.44;5041086;28;20061;-74
2023/05/31 00:20:49;;;;;;;23.73;11.45;;;;;;;13.00;100.00;92830.81;5092454;28;20517;-74
2023/05/31 00:23:15;;;;;;;24.02;11.15;;;;;;;12.97;100.00;92834.00;5092356;28;20353;-74
2023/05/31 00:25:41;;;;;;;30.10;12.40;;;;;;;12.93;100.00;92828.56;5074184;28;20051;-74
2023/05/31 00:28:06;;;;;;;27.05;12.10;;;;;;;12.95;100.00;92826.44;5092304;28;20058;-75
2023/05/31 00:30:32;;;;;;;31.65;13.10;;;;;;;12.94;100.00;92827.50;5073990;28;20123;-74
2023/05/31 00:32:58;;;;;;;29.45;13.63;;;;;;;12.91;100.00;92830.72;5073991;28;20493;-75
2023/05/31 00:35:23;;;;;;;23.48;12.00;;;;;;;12.88;100.00;92839.97;5092191;28;20024;-74
2023/05/31 00:37:49;;;;;;;25.67;11.55;;;;;;;12.85;100.00;92842.38;5092492;28;20040;-74
2023/05/31 00:40:14;;;;;;;27.23;13.40;;;;;;;12.85;100.00;92839.75;5073748;28;20063;-74
2023/05/31 00:42:40;;;;;;;29.08;11.90;;;;;;;12.85;100.00;92839.75;5073885;28;20032;-74
2023/05/31 00:45:06;;;;;;;26.55;11.98;;;;;;;12.84;100.00;92835.59;5091974;28;20383;-74
2023/05/31 00:47:33;;;;;;;28.85;12.00;;;;;;;12.82;100.00;92829.84;5073534;28;20032;-74
2023/05/31 00:49:58;;;;;;;26.73;12.23;;;;;;;12.80;100.00;92835.38;5056777;28;20323;-74
2023/05/31 00:52:25;;;;;;;25.90;12.55;;;;;;;12.80;100.00;92838.00;5091854;28;20484;-74
2023/05/31 00:54:51;;;;;;;26.65;11.95;;;;;;;12.82;100.00;92837.72;5073375;28;20039;-75
2023/05/31 00:57:17;;;;;;;23.55;11.77;;;;;;;12.81;100.00;92838.78;5073623;28;20040;-74
2023/05/31 00:59:43;;;;;;;27.35;11.63;;;;;;;12.79;100.00;92835.66;5056978;28;20032;-74
2023/05/31 01:02:10;;;;;;;30.00;11.45;;;;;;;12.74;100.00;92838.38;5091838;28;20039;-74
2023/05/31 01:04:36;;;;;;;26.38;11.30;;;;;;;12.71;100.00;92830.00;5073407;28;20050;-74
2023/05/31 01:07:01;;;;;;;26.10;11.77;;;;;;;12.70;100.00;92835.56;5091621;28;20389;-74
2023/05/31 01:09:30;;;;;;;28.88;12.05;;;;;;;12.69;100.00;92834.00;5091642;28;20040;-74
2023/05/31 01:12:22;;;;;;;28.45;12.00;;;;;;;12.70;100.00;92838.97;5091550;28;20024;-74
2023/05/31 01:15:10;;;;;;;29.98;12.90;;;;;;;12.70;100.00;92825.84;5091754;28;20032;-75
2023/05/31 01:17:38;;;;;;;29.27;12.07;;;;;;;12.71;100.00;92830.00;5091531;28;20036;-74
2023/05/31 01:20:09;;;;;;;26.92;13.27;;;;;;;12.68;100.00;92832.44;5073402;28;20134;-74
2023/05/31 01:23:01;;;;;;;45.00;16.50;;;;;;;12.68;100.00;92830.59;5091471;28;20490;-74
2023/05/31 01:25:29;;;;;;;32.33;12.25;;;;;;;12.65;100.00;92835.63;5091290;28;20111;-74
2023/05/31 01:27:58;;;;;;;29.80;11.70;;;;;;;12.57;100.00;92829.22;5073321;28;20024;-75
2023/05/31 01:30:25;;;;;;;30.02;11.65;;;;;;;12.56;100.00;92832.91;5073233;28;20069;-74
2023/05/31 01:32:52;;;;;;;29.95;14.10;;;;;;;12.56;100.00;92829.50;5073289;28;20138;-75
2023/05/31 01:35:17;;;;;;;25.42;12.20;;;;;;;12.56;100.00;92826.88;5073436;28;20452;-75
2023/05/31 01:37:45;;;;;;;27.13;11.70;;;;;;;12.53;100.00;92820.34;5091145;28;20039;-74
2023/05/31 01:40:13;;;;;;;25.85;11.23;;;;;;;12.54;100.00;92821.13;5072877;28;20097;-74
2023/05/31 01:42:39;;;;;;;29.45;11.23;;;;;;;12.52;100.00;92818.81;5056457;28;20474;-74
2023/05/31 01:45:06;;;;;;;26.33;10.82;;;;;;;12.56;100.00;92824.25;5090998;28;20044;-74
2023/05/31 01:47:32;;;;;;;27.77;10.80;;;;;;;12.54;100.00;92824.56;5091388;28;20611;-74
2023/05/31 01:49:58;;;;;;;28.45;10.90;;;;;;;12.53;100.00;92822.22;5073069;28;20240;-74
2023/05/31 01:52:25;;;;;;;27.92;12.55;;;;;;;12.53;100.00;92822.97;5056553;28;20046;-74
2023/05/31 01:54:52;;;;;;;26.90;11.90;;;;;;;12.56;100.00;92822.41;5073747;28;20354;-75
2023/05/31 01:57:19;;;;;;;25.98;11.73;;;;;;;12.55;100.00;92814.81;5072760;28;20388;-74
2023/05/31 01:59:46;;;;;;;27.50;11.40;;;;;;;12.57;100.00;92816.09;5072886;28;20202;-74
2023/05/31 02:02:12;;;;;;;24.25;10.52;;;;;;;12.54;100.00;92818.50;5075078;28;20059;-74
2023/05/31 02:04:37;;;;;;;24.95;10.57;;;;;;;12.53;100.00;92811.72;5094904;28;20397;-74
2023/05/31 02:07:04;;;;;;;25.42;11.15;;;;;;;12.49;100.00;92808.88;5060441;28;20409;-74
2023/05/31 02:09:29;;;;;;;31.13;11.10;;;;;;;12.52;100.00;92805.69;5076808;28;20050;-74
2023/05/31 02:11:55;;;;;;;28.67;11.55;;;;;;;12.47;100.00;92808.38;5076825;28;20040;-74
2023/05/31 02:14:20;;;;;;;32.53;12.02;;;;;;;12.47;100.00;92809.19;5076738;28;20488;-74
2023/05/31 02:16:46;;;;;;;28.85;11.55;;;;;;;12.44;100.00;92809.75;5076588;28;20558;-75
2023/05/31 02:19:14;;;;;;;30.27;11.05;;;;;;;12.44;100.00;92808.97;5076493;28;20040;-75
2023/05/31 02:21:40;;;;;;;27.65;11.88;;;;;;;12.43;100.00;92802.16;5076579;28;20497;-74
2023/05/31 02:24:08;;;;;;;25.30;11.10;;;;;;;12.42;100.00;92805.84;5094708;28;20032;-74
2023/05/31 02:26:33;;;;;;;25.88;11.55;;;;;;;12.39;100.00;92796.72;5059924;28;20557;-74
2023/05/31 02:28:59;;;;;;;24.13;11.07;;;;;;;12.38;100.00;92799.63;5076485;28;20040;-74
2023/05/31 02:31:24;;;;;;;24.80;11.50;;;;;;;12.37;100.00;92792.81;5094821;28;20040;-74
2023/05/31 02:33:51;;;;;;;28.58;11.02;;;;;;;12.35;100.00;92793.09;5060080;28;20039;-74
2023/05/31 02:36:17;;;;;;;26.55;10.88;;;;;;;12.33;100.00;92795.22;5076344;28;20040;-74
2023/05/31 02:38:44;;;;;;;25.40;10.93;;;;;;;12.34;100.00;92793.38;5076276;28;20429;-74
2023/05/31 02:41:11;;;;;;;29.77;11.20;;;;;;;12.34;100.00;92782.88;5076123;28;20629;-74
2023/05/31 02:43:37;;;;;;;24.83;10.52;;;;;;;12.35;100.00;92790.47;5076118;28;20093;-74
2023/05/31 02:46:03;;;;;;;24.83;10.07;;;;;;;12.38;100.00;92783.88;5075897;28;20482;-74
2023/05/31 02:48:30;;;;;;;27.05;11.02;;;;;;;12.37;100.00;92790.19;5076105;28;20265;-74
2023/05/31 02:50:56;;;;;;;29.75;10.40;;;;;;;12.39;100.00;92782.81;5076083;28;20039;-74
2023/05/31 02:53:48;;;;;;;26.42;10.65;;;;;;;12.41;100.00;92784.06;5089832;28;20043;-74
2023/05/31 02:56:21;;;;;;;24.30;10.43;;;;;;;12.40;100.00;92786.97;5076135;28;20409;-73
2023/05/31 02:59:11;;;;;;;31.90;11.75;;;;;;;12.38;100.00;92786.47;5062695;28;20378;-73
2023/05/31 03:01:40;;;;;;;33.75;12.55;;;;;;;12.37;100.00;92787.56;5075756;28;20044;-73
2023/05/31 03:04:27;;;;;;;31.77;11.82;;;;;;;12.38;100.00;92786.47;5078479;28;20044;-73
2023/05/31 03:06:55;;;;;;;25.80;10.73;;;;;;;12.34;100.00;92788.13;5075755;28;20337;-73
2023/05/31 03:09:21;;;;;;;28.08;12.15;;;;;;;12.33;100.00;92786.59;5075753;28;20040;-73
2023/05/31 03:11:47;;;;;;;26.45;11.38;;;;;;;12.34;100.00;92781.06;5058775;28;20040;-73
2023/05/31 03:14:13;;;;;;;25.55;10.57;;;;;;;12.37;100.00;92784.94;5093747;28;20498;-73
2023/05/31 03:16:58;;;;;;;28.27;11.82;;;;;;;12.37;100.00;92787.56;5061721;28;20123;-73
2023/05/31 03:19:23;;;;;;;28.25;11.95;;;;;;;12.39;100.00;92788.06;5075588;28;20119;-73
2023/05/31 03:21:52;;;;;;;32.55;12.07;;;;;;;12.37;100.00;92782.31;5075465;28;20035;-73
2023/05/31 03:24:17;;;;;;;31.67;13.02;;;;;;;12.34;100.00;92782.88;5093399;28;20107;-73
2023/05/31 03:26:46;;;;;;;25.58;11.25;;;;;;;12.38;100.00;92783.88;5075396;28;20039;-73
2023/05/31 03:29:11;;;;;;;27.75;11.65;;;;;;;12.34;100.00;92783.69;5094498;28;20051;-73
2023/05/31 03:31:37;;;;;;;33.45;13.07;;;;;;;12.31;100.00;92786.09;5093709;28;20401;-73
2023/05/31 03:34:03;;;;;;;36.20;13.90;;;;;;;12.42;100.00;92785.63;5059055;28;20036;-73
2023/05/31 03:36:28;;;;;;;33.95;12.25;;;;;;;12.36;100.00;92794.66;5058527;28;20082;-73
2023/05/31 03:38:56;;;;;;;23.27;11.13;;;;;;;12.52;100.00;92789.94;5058710;28;20093;-73
2023/05/31 03:41:21;;;;;;;25.92;11.40;;;;;;;12.46;100.00;92791.09;5074918;28;20048;-73
2023/05/31 03:43:47;;;;;;;27.83;10.43;;;;;;;12.59;100.00;92794.81;5075080;28;20055;-73
2023/05/31 03:46:13;;;;;;;25.38;10.40;;;;;;;12.65;100.00;92794.41;5074279;28;20101;-73
2023/05/31 03:48:38;;;;;;;26.92;9.23;;;;;;;12.63;100.00;92793.94;5093098;28;20051;-73
2023/05/31 03:51:04;;;;;;;23.67;9.80;;;;;;;12.62;100.00;92796.84;5075778;28;20047;-74
2023/05/31 03:53:30;;;;;;;25.33;8.00;;;;;;;12.61;100.00;92796.06;5075813;28;20044;-74
2023/05/31 03:55:56;;;;;;;17.38;7.68;;;;;;;12.60;100.00;92796.34;5058363;28;20036;-74
2023/05/31 03:58:22;;;;;;;17.10;8.02;;;;;;;12.69;100.00;92794.59;5074939;28;20051;-74
2023/05/31 04:00:48;;;;;;;17.45;8.35;;;;;;;12.65;100.00;92796.25;5074844;28;20386;-74
2023/05/31 04:03:14;;;;;;;17.30;7.38;;;;;;;12.68;100.00;92799.09;5092793;28;20089;-74
2023/05/31 04:05:40;;;;;;;17.70;7.97;;;;;;;12.72;100.00;92804.50;5074584;28;20067;-74
2023/05/31 04:08:07;;;;;;;16.60;8.00;;;;;;;12.68;100.00;92799.09;5074506;28;20072;-74
2023/05/31 04:10:33;;;;;;;20.35;8.43;;;;;;;12.67;100.00;92805.38;5063488;28;20039;-74
2023/05/31 04:12:59;;;;;;;18.02;8.15;;;;;;;12.69;100.00;92810.34;5067175;28;20039;-74
2023/05/31 04:15:25;;;;;;;21.02;8.73;;;;;;;12.69;100.00;92808.50;5054330;28;20036;-76
2023/05/31 04:17:52;;;;;;;21.80;8.90;;;;;;;12.69;100.00;92805.88;5058204;28;20043;-76
2023/05/31 04:20:18;;;;;;;21.52;8.05;;;;;;;12.70;100.00;92801.44;5061323;28;20398;-77
2023/05/31 04:22:46;;;;;;;21.13;8.32;;;;;;;12.69;100.00;92795.38;5038856;28;20040;-77
2023/05/31 04:25:12;;;;;;;18.42;8.15;;;;;;;12.69;100.00;92792.75;5054798;28;20406;-78
2023/05/31 04:27:40;;;;;;;17.95;8.63;;;;;;;12.70;100.00;92796.94;5072669;28;20042;-77
2023/05/31 04:30:07;;;;;;;18.17;8.20;;;;;;;12.72;100.00;92791.38;5051503;28;20028;-78
2023/05/31 04:32:34;;;;;;;17.08;8.98;;;;;;;12.65;100.00;92799.69;5055656;28;20490;-77
2023/05/31 04:35:03;;;;;;;18.52;7.97;;;;;;;12.65;100.00;92799.69;5063107;28;20046;-77
2023/05/31 04:37:30;;;;;;;34.00;8.27;;;;;;;12.64;100.00;92805.97;5063406;28;20123;-78
2023/05/31 04:39:58;;;;;;;18.95;7.35;;;;;;;12.60;100.00;92805.00;5052184;28;20421;-78
2023/05/31 04:42:25;;;;;;;16.52;7.53;;;;;;;12.60;100.00;92807.63;5041870;28;20040;-78
2023/05/31 04:44:57;;;;;;;25.63;8.82;;;;;;;12.65;100.00;92809.38;5057344;28;20421;-78
2023/05/31 04:47:27;;;;;;;19.80;8.63;;;;;;;12.67;100.00;92808.00;5054585;28;20041;-77
2023/05/31 04:49:56;;;;;;;28.23;8.43;;;;;;;12.68;100.00;92806.19;5060084;28;20043;-78
2023/05/31 04:52:28;;;;;;;20.70;9.07;;;;;;;12.68;100.00;92820.09;5054822;28;20425;-77
2023/05/31 04:54:59;;;;;;;21.02;8.00;;;;;;;12.76;100.00;92818.63;5057346;28;20032;-77
2023/05/31 04:57:29;;;;;;;20.38;8.55;;;;;;;12.68;100.00;92817.47;5070286;28;20034;-77
2023/05/31 04:59:58;;;;;;;19.45;8.40;;;;;;;12.65;100.00;92819.88;5045691;28;20040;-76
2023/05/31 05:02:24;;;;;;;18.83;8.40;;;;;;;12.55;100.00;92820.84;5049730;28;20032;-77
2023/05/31 05:04:51;;;;;;;24.38;9.65;;;;;;;12.53;100.00;92830.09;5059833;28;20056;-77
2023/05/31 05:07:17;;;;;;;23.23;10.05;;;;;;;12.45;100.00;92823.63;5035756;28;20441;-78
2023/05/31 05:09:43;;;;;;;21.50;9.38;;;;;;;12.40;100.00;92828.97;5046287;28;20131;-78
2023/05/31 05:12:09;;;;;;;20.48;9.63;;;;;;;12.42;100.00;92825.00;5089313;28;20106;-77
2023/05/31 05:14:39;;;;;;;24.20;9.65;;;;;;;12.44;100.00;92830.75;5051653;28;20044;-77
2023/05/31 05:17:05;;;;;;;23.42;9.77;;;;;;;12.47;100.00;92827.56;5046690;28;20406;-77
2023/05/31 05:19:32;;;;;;;25.30;10.20;;;;;;;12.51;100.00;92835.63;5042693;28;20060;-77
2023/05/31 05:21:57;;;;;;;25.02;9.70;;;;;;;12.52;100.00;92837.19;5061860;28;20063;-78
2023/05/31 05:24:23;;;;;;;23.13;9.40;;;;;;;12.55;100.00;92836.59;5068599;28;20030;-77
2023/05/31 05:26:49;;;;;;;25.02;9.90;;;;;;;12.60;100.00;92833.88;5065440;28;20048;-77
2023/05/31 05:29:15;;;;;;;24.85;9.98;;;;;;;12.65;100.00;92838.25;5057539;28;20332;-77
2023/05/31 05:31:43;;;;;;;22.70;9.70;;;;;;;12.68;100.00;92840.34;5066858;28;20032;-77
2023/05/31 05:34:09;;;;;;;23.90;9.82;;;;;;;12.71;100.00;92845.78;5061837;28;20043;-77
2023/05/31 05:36:36;;;;;;;22.90;9.45;;;;;;;12.76;100.00;92844.91;5043520;28;20060;-77
2023/05/31 05:39:05;;;;;;;20.83;8.68;;;;;;;12.79;100.00;92835.66;5068115;28;20543;-78
2023/05/31 05:41:33;;;;;;;28.27;9.15;;;;;;;12.79;100.00;92841.72;5032570;28;20044;-77
2023/05/31 05:43:59;;;;;;;17.63;8.32;;;;;;;12.85;100.00;92842.38;5032526;28;20067;-78
2023/05/31 05:46:24;;;;;;;26.13;9.13;;;;;;;12.89;100.00;92851.25;5040132;28;20037;-77
2023/05/31 05:48:50;;;;;;;20.88;9.13;;;;;;;12.92;100.00;92855.91;5047697;28;20040;-77
2023/05/31 05:51:19;;;;;;;23.77;9.05;;;;;;;12.96;100.00;92851.63;5045649;28;20024;-78
2023/05/31 05:53:45;;;;;;;30.27;9.48;;;;;;;13.00;100.00;92852.63;5050232;28;20020;-77
2023/05/31 05:56:17;;;;;;;20.15;9.60;;;;;;;13.08;100.00;92854.56;5033474;28;20040;-77
2023/05/31 05:58:55;;;;;;;20.85;8.18;;;;;;;13.16;100.00;92855.72;5044725;28;20033;-77
2023/05/31 06:01:22;;;;;;;26.98;10.13;;;;;;;13.24;100.00;92856.88;5065110;28;20048;-77
2023/05/31 06:03:54;;;;;;;24.37;9.07;;;;;;;13.32;100.00;92861.50;5060052;28;20144;-78
2023/05/31 06:06:21;;;;;;;19.58;8.10;;;;;;;13.39;100.00;92856.63;5024589;28;20317;-77
2023/05/31 06:08:47;;;;;;;22.98;8.80;;;;;;;13.48;100.00;92860.09;5034768;28;20481;-77
2023/05/31 06:11:18;;;;;;;18.15;7.50;;;;;;;13.57;100.00;92856.78;5044049;28;20116;-77
2023/05/31 06:13:44;;;;;;;16.52;7.57;;;;;;;13.56;100.00;92860.50;5021803;28;20098;-77
2023/05/31 06:16:13;;;;;;;18.60;7.47;;;;;;;13.59;100.00;92857.28;5044544;28;20024;-77
2023/05/31 06:18:39;;;;;;;17.70;7.43;;;;;;;13.60;100.00;92864.88;5031817;28;20114;-77
2023/05/31 06:21:05;;;;;;;16.92;8.00;;;;;;;13.51;100.00;92859.53;5036892;28;20474;-77
2023/05/31 06:23:32;;;;;;;21.15;8.65;;;;;;;13.44;100.00;92864.41;5046985;28;20068;-78
2023/05/31 06:25:58;;;;;;;19.85;8.85;;;;;;;13.51;100.00;92864.78;5032783;28;20521;-77
2023/05/31 06:28:23;;;;;;;22.13;8.35;;;;;;;13.44;100.00;92867.06;5025341;28;20070;-78
2023/05/31 06:30:53;;;;;;;20.13;8.38;;;;;;;13.45;100.00;92868.59;5026175;28;20024;-78
2023/05/31 06:33:18;;;;;;;20.65;8.48;;;;;;;13.67;100.00;92872.38;5024894;28;20043;-77
2023/05/31 06:35:44;;;;;;;17.95;7.72;;;;;;;13.51;100.00;92880.56;5048151;28;20041;-77
2023/05/31 06:38:17;;;;;;;22.02;8.07;;;;;;;13.39;100.00;92879.50;5035012;28;20041;-80
2023/05/31 06:40:45;;;;;;;20.00;7.90;;;;;;;13.38;100.00;92884.00;5049802;28;20123;-78
2023/05/31 06:43:10;;;;;;;23.00;9.35;;;;;;;13.33;100.00;92884.88;5053408;28;20128;-77
2023/05/31 06:45:59;;;;;;;23.00;8.70;;;;;;;13.13;100.00;92890.50;5088981;28;20065;-78
2023/05/31 06:48:44;;;;;;;23.73;8.45;;;;;;;13.10;100.00;92891.06;5065055;28;20407;-79
2023/05/31 06:51:33;;;;;;;24.25;8.70;;;;;;;13.10;100.00;92889.22;5065821;28;20047;-78
2023/05/31 06:54:19;;;;;;;24.88;9.43;;;;;;;13.11;100.00;92900.50;5061121;28;20072;-82
2023/05/31 06:56:50;;;;;;;21.55;8.63;;;;;;;13.11;100.00;92900.50;5066696;28;20555;-78
2023/05/31 06:59:16;;;;;;;19.95;8.07;;;;;;;13.13;100.00;92901.78;5067825;28;20098;-77
2023/05/31 07:01:42;;;;;;;23.35;9.07;;;;;;;13.07;100.00;92900.31;5054221;28;20025;-78
2023/05/31 07:04:07;;;;;;;20.08;8.38;;;;;;;13.10;100.00;92904.19;5083342;28;20037;-78
2023/05/31 07:06:35;;;;;;;20.45;8.43;;;;;;;13.17;100.00;92898.56;5070232;28;20139;-77
2023/05/31 07:09:01;;;;;;;15.88;7.53;;;;;;;13.20;100.00;92895.38;5086224;28;20501;-77
2023/05/31 07:11:35;;;;;;;22.52;7.90;;;;;;;13.24;100.00;92897.13;5050172;28;20016;-78
2023/05/31 07:14:03;;;;;;;20.58;8.40;;;;;;;13.26;100.00;92905.50;5044200;28;20452;-77
2023/05/31 07:16:29;;;;;;;20.08;7.65;;;;;;;13.47;100.00;92903.28;5062482;28;20551;-77
2023/05/31 07:18:57;;;;;;;21.10;8.13;;;;;;;13.42;100.00;92899.94;5065218;28;20463;-78
2023/05/31 07:21:23;;;;;;;21.63;8.95;;;;;;;13.44;100.00;92903.88;5065329;28;20060;-76
2023/05/31 07:23:49;;;;;;;19.05;9.18;;;;;;;13.52;100.00;92911.06;5066792;28;20039;-77
2023/05/31 07:26:15;;;;;;;23.85;9.43;;;;;;;13.59;100.00;92909.88;5077391;28;20074;-77
2023/05/31 07:28:45;;;;;;;22.08;10.15;;;;;;;13.63;100.00;92910.88;5081950;28;20709;-77
2023/05/31 07:31:15;;;;;;;22.42;9.85;;;;;;;13.70;100.00;92905.97;5081328;28;20130;-77
2023/05/31 07:33:41;;;;;;;24.02;9.30;;;;;;;13.71;100.00;92899.63;5090781;28;21140;-77
2023/05/31 07:36:07;;;;;;;26.13;11.02;;;;;;;13.70;100.00;92906.75;5065278;28;20131;-77
2023/05/31 07:38:45;;;;;;;22.40;8.95;;;;;;;13.68;100.00;92908.13;5066612;28;20473;-77
2023/05/31 07:41:11;;;;;;;30.98;9.77;;;;;;;13.70;100.00;92900.72;5071375;28;20047;-77
2023/05/31 07:43:36;;;;;;;20.08;9.32;;;;;;;13.77;100.00;92908.22;5052987;28;20033;-77
2023/05/31 07:46:02;;;;;;;22.42;10.52;;;;;;;13.81;100.00;92898.66;5068197;28;20063;-77
2023/05/31 07:48:28;;;;;;;18.45;8.48;;;;;;;13.88;100.00;92897.16;5057869;28;20451;-77
2023/05/31 07:50:54;;;;;;;23.88;10.15;;;;;;;14.02;100.00;92899.75;5055714;28;20071;-77
2023/05/31 07:53:19;;;;;;;24.98;9.48;;;;;;;14.10;100.00;92899.06;5072522;28;20397;-78
2023/05/31 07:55:45;;;;;;;21.25;9.27;;;;;;;14.23;100.00;92896.66;5073670;28;20230;-77
2023/05/31 07:58:11;;;;;;;20.92;9.75;;;;;;;14.27;100.00;92898.41;5056406;28;20043;-77
2023/05/31 08:00:38;;;;;;;20.65;9.57;;;;;;;14.36;100.00;92895.84;5056323;28;20040;-77
2023/05/31 08:03:03;;;;;;;26.98;10.48;;;;;;;14.45;100.00;92903.81;5073545;28;20532;-77
2023/05/31 08:05:29;;;;;;;22.48;10.15;;;;;;;14.46;100.00;92900.13;5060100;28;20036;-77
2023/05/31 08:07:55;;;;;;;24.67;10.90;;;;;;;14.49;100.00;92902.13;5070671;28;20081;-77
2023/05/31 08:10:20;;;;;;;20.70;10.60;;;;;;;14.50;100.00;92896.59;5068677;28;20111;-77
2023/05/31 08:12:46;;;;;;;24.17;10.77;;;;;;;14.50;100.00;92895.78;5059554;28;20123;-77
2023/05/31 08:15:12;;;;;;;23.50;10.30;;;;;;;14.53;100.00;92889.94;5058576;28;20036;-77
2023/05/31 08:17:37;;;;;;;30.95;10.82;;;;;;;14.55;100.00;92891.22;5075679;28;20036;-77
2023/05/31 08:20:06;;;;;;;27.33;11.50;;;;;;;14.57;100.00;92893.56;5080882;28;20085;-77
2023/05/31 08:22:32;;;;;;;23.85;10.23;;;;;;;14.63;100.00;92889.69;5055527;28;20069;-77
2023/05/31 08:24:58;;;;;;;27.88;10.70;;;;;;;14.67;100.00;92893.28;5050002;28;20035;-77
2023/05/31 08:27:24;;;;;;;26.55;11.60;;;;;;;14.71;100.00;92890.84;5082042;28;20510;-76
2023/05/31 08:29:50;;;;;;;24.33;11.50;;;;;;;14.76;100.00;92888.06;5073674;28;20054;-77
2023/05/31 08:32:16;;;;;;;25.75;11.50;;;;;;;14.80;100.00;92894.31;5080280;28;20040;-77
2023/05/31 08:34:44;;;;;;;25.27;10.80;;;;;;;14.91;100.00;92892.19;5082853;28;20024;-76
2023/05/31 08:37:11;;;;;;;29.13;11.73;;;;;;;14.97;100.00;92894.41;5054228;28;20123;-77
2023/05/31 08:39:36;;;;;;;24.25;11.18;;;;;;;15.10;100.00;92898.00;5088275;28;20525;-77
2023/05/31 08:42:07;;;;;;;27.42;12.00;;;;;;;15.32;100.00;92896.41;5078069;28;20044;-76
2023/05/31 08:44:33;;;;;;;38.65;12.88;;;;;;;15.05;100.00;92892.88;5053715;28;20076;-77
2023/05/31 08:47:07;;;;;;;30.17;12.88;;;;;;;14.94;100.00;92895.00;5076299;28;20074;-77
2023/05/31 08:49:34;;;;;;;23.85;11.00;;;;;;;14.94;100.00;92889.72;5083472;28;20497;-77
2023/05/31 08:52:00;;;;;;;22.83;10.88;;;;;;;14.99;100.00;92900.16;5064382;28;20482;-77
2023/05/31 08:54:26;;;;;;;21.77;10.50;;;;;;;15.01;100.00;92891.94;5076331;28;20105;-77
2023/05/31 08:56:53;;;;;;;26.95;10.57;;;;;;;15.20;100.00;92895.13;5078615;28;20028;-77
2023/05/31 08:59:19;;;;;;;25.02;11.50;;;;;;;15.43;100.00;92889.78;5085100;28;20076;-77
2023/05/31 09:01:47;;;;;;;27.00;11.18;;;;;;;15.59;100.00;92893.53;5075348;28;20578;-76
2023/05/31 09:04:14;;;;;;;25.77;10.77;;;;;;;15.68;100.00;92895.44;5053482;28;20070;-77
2023/05/31 09:06:39;;;;;;;26.08;11.30;;;;;;;15.82;100.00;92888.19;5071702;28;20036;-76
2023/05/31 09:09:08;;;;;;;27.33;10.13;;;;;;;16.09;100.00;92887.13;5071367;28;20031;-75
2023/05/31 09:11:39;;;;;;;22.30;10.02;;;;;;;16.32;100.00;92893.00;5070798;28;20037;-76
2023/05/31 09:14:05;;;;;;;20.08;10.18;;;;;;;16.58;100.00;92889.59;5054121;28;20128;-75
2023/05/31 09:16:30;;;;;;;25.40;11.38;;;;;;;16.95;100.00;92888.13;5053431;28;20119;-74
2023/05/31 09:19:04;;;;;;;24.20;10.48;;;;;;;17.52;100.00;92888.84;5036920;28;20093;-75
2023/05/31 09:21:41;;;;;;;22.08;10.23;;;;;;;17.80;100.00;92891.84;5053289;28;20043;-75
2023/05/31 09:24:08;;;;;;;19.58;9.95;;;;;;;18.19;100.00;92900.47;5053070;28;20044;-75
2023/05/31 09:26:34;;;;;;;26.05;9.85;;;;;;;18.57;100.00;92894.25;5071527;28;20567;-75
2023/05/31 09:29:00;;;;;;;20.95;9.98;;;;;;;18.99;99.38;92889.69;5071135;28;20040;-75
2023/05/31 09:31:27;;;;;;;24.08;9.35;;;;;;;19.03;88.01;92889.81;5053152;28;20119;-75
2023/05/31 09:33:56;;;;;;;26.85;12.80;;;;;;;18.77;100.00;92885.53;5053267;28;20185;-75
2023/05/31 09:36:30;;;;;;;33.15;14.05;;;;;;;18.15;100.00;92887.13;5053176;28;20028;-75
2023/05/31 09:39:04;;;;;;;32.35;15.38;;;;;;;17.87;100.00;92884.94;5070954;28;20032;-75
2023/05/31 09:41:30;;;;;;;26.75;12.23;;;;;;;17.37;100.00;92882.25;5053052;28;20143;-75
2023/05/31 09:43:56;;;;;;;34.80;13.15;;;;;;;17.03;100.00;92889.22;5053010;28;20090;-75
2023/05/31 09:46:22;;;;;;;28.60;14.57;;;;;;;16.71;100.00;92883.34;5036450;28;20044;-75
2023/05/31 09:48:58;;;;;;;32.83;16.20;;;;;;;16.59;100.00;92888.50;5070856;28;20128;-74
2023/05/31 09:51:24;;;;;;;30.00;13.93;;;;;;;16.53;100.00;92892.41;5070748;28;20090;-75
2023/05/31 09:53:55;;;;;;;38.33;14.55;;;;;;;16.35;100.00;92889.00;5070767;28;20486;-75
2023/05/31 09:56:22;;;;;;;34.83;14.98;;;;;;;16.20;100.00;92890.22;5052836;28;20029;-75
2023/05/31 09:58:49;;;;;;;37.13;16.15;;;;;;;16.20;100.00;92890.22;5052938;28;20021;-75
2023/05/31 10:01:15;;;;;;;36.90;15.73;;;;;;;16.53;100.00;92898.47;5052662;28;20052;-74
2023/05/31 10:03:43;;;;;;;32.88;14.70;;;;;;;16.53;100.00;92887.91;5053014;28;20382;-75
2023/05/31 10:06:09;;;;;;;30.25;13.57;;;;;;;16.66;100.00;92886.16;5052714;28;20086;-75
2023/05/31 10:08:34;;;;;;;34.28;12.77;;;;;;;16.73;100.00;92890.94;5053008;28;20039;-75
2023/05/31 10:11:01;;;;;;;32.92;14.40;;;;;;;16.79;100.00;92887.84;5070838;28;20042;-75
2023/05/31 10:13:31;;;;;;;27.33;14.07;;;;;;;16.78;100.00;92886.28;5070710;28;20398;-75
2023/05/31 10:16:04;;;;;;;31.02;13.73;;;;;;;17.07;100.00;92882.22;5052969;28;20513;-75
2023/05/31 10:18:33;;;;;;;27.10;10.57;;;;;;;17.24;100.00;92882.13;5070631;28;20380;-75
2023/05/31 10:21:24;;;;;;;23.60;10.25;;;;;;;17.26;100.00;92884.47;5070698;28;20347;-75
2023/05/31 10:24:02;;;;;;;21.75;9.88;;;;;;;17.44;100.00;92882.53;5073655;28;20433;-74
2023/05/31 10:26:42;;;;;;;19.17;9.63;;;;;;;17.62;100.00;92876.03;5074319;28;20414;-74
2023/05/31 10:29:17;;;;;;;22.05;9.90;;;;;;;17.72;100.00;92887.34;5074740;28;20386;-75
2023/05/31 10:31:50;;;;;;;21.73;9.57;;;;;;;17.86;100.00;92883.41;5074257;28;20115;-75
2023/05/31 10:34:19;;;;;;;24.20;10.30;;;;;;;18.04;99.15;92878.78;5074187;28;20035;-74
2023/05/31 10:36:46;;;;;;;22.05;9.30;;;;;;;17.93;100.00;92882.91;5056489;28;20020;-74
2023/05/31 10:39:39;;;;;;;20.38;9.18;;;;;;;18.08;100.00;92873.59;5075036;28;20044;-75
2023/05/31 10:42:42;;;;;;;21.67;9.57;;;;;;;18.23;100.00;92869.59;5056832;28;20045;-75
2023/05/31 10:45:10;;;;;;;24.17;10.20;;;;;;;18.22;100.00;92868.06;5057139;28;20053;-75
2023/05/31 10:47:42;;;;;;;23.75;9.88;;;;;;;18.19;100.00;92860.75;5074272;28;20028;-75
2023/05/31 10:50:08;;;;;;;23.42;9.30;;;;;;;18.14;100.00;92863.59;5074280;28;20067;-74
2023/05/31 10:52:33;;;;;;;19.88;8.98;;;;;;;17.99;100.00;92859.63;5056435;28;20037;-75
2023/05/31 10:55:17;;;;;;;27.65;9.68;;;;;;;17.86;100.00;92861.47;5074225;28;20158;-75
2023/05/31 10:57:43;;;;;;;24.33;10.02;;;;;;;18.01;100.00;92858.25;5073961;28;20033;-75
2023/05/31 11:00:13;;;;;;;29.67;11.07;;;;;;;18.20;100.00;92855.13;5074027;28;20029;-75
2023/05/31 11:02:49;;;;;;;29.45;10.95;;;;;;;18.24;100.00;92849.97;5056239;28;20064;-75
2023/05/31 11:05:20;;;;;;;29.02;12.05;;;;;;;18.16;100.00;92848.16;5056576;28;20092;-75
2023/05/31 11:07:46;;;;;;;25.08;11.75;;;;;;;17.96;100.00;92849.69;5073853;28;20080;-75
2023/05/31 11:10:31;;;;;;;17.85;8.85;;;;;;;17.94;100.00;92839.41;5074094;28;20119;-74
2023/05/31 11:13:03;;;;;;;20.17;9.27;;;;;;;17.95;100.00;92834.91;5073968;28;20036;-75
2023/05/31 11:15:40;;;;;;;20.40;8.30;;;;;;;18.02;100.00;92833.28;5073775;28;20190;-74
2023/05/31 11:18:09;;;;;;;17.52;9.00;;;;;;;18.01;100.00;92834.41;5074237;28;20402;-75